createdAt,value
2022-08-16T00:00:20.258Z,22.20
2022-08-16T00:02:58.540Z,22.20
2022-08-16T00:05:27.544Z,22.20
2022-08-16T00:08:04.832Z,22.20
2022-08-16T00:10:33.799Z,22.20
2022-08-16T00:13:03.892Z,22.20
2022-08-16T00:15:51.455Z,22.20
2022-08-16T00:18:22.239Z,22.20
2022-08-16T00:20:57.751Z,22.20
2022-08-16T00:23:34.390Z,22.20
2022-08-16T00:26:36.037Z,22.20
2022-08-16T00:28:55.338Z,22.20
2022-08-16T00:31:24.297Z,22.30
2022-08-16T00:33:51.808Z,22.20
2022-08-16T00:36:20.119Z,22.20
2022-08-16T00:38:47.828Z,22.20
2022-08-16T00:41:15.762Z,22.20
2022-08-16T00:43:45.051Z,22.20
2022-08-16T00:46:34.748Z,22.30
2022-08-16T00:49:06.850Z,22.20
2022-08-16T00:51:45.134Z,22.30
2022-08-16T00:54:13.349Z,22.30
2022-08-16T00:56:58.379Z,22.30
2022-08-16T00:59:36.103Z,22.30
2022-08-16T01:02:31.492Z,22.30
2022-08-16T01:05:11.048Z,22.20
2022-08-16T01:07:51.773Z,22.20
2022-08-16T01:10:32.706Z,22.30
2022-08-16T01:13:23.388Z,22.20
2022-08-16T01:16:01.210Z,22.20
2022-08-16T01:18:39.894Z,22.20
2022-08-16T01:21:33.902Z,22.20
2022-08-16T01:24:44.606Z,22.30
2022-08-16T01:27:22.114Z,22.30
2022-08-16T01:30:20.355Z,22.30
2022-08-16T01:32:59.579Z,22.30
2022-08-16T01:36:09.451Z,22.30
2022-08-16T01:38:46.917Z,22.20
2022-08-16T01:41:26.646Z,22.20
2022-08-16T01:44:00.910Z,22.30
2022-08-16T01:46:40.671Z,22.20
2022-08-16T01:49:16.444Z,22.20
2022-08-16T01:51:48.849Z,22.30
2022-08-16T01:54:16.914Z,22.30
2022-08-16T01:56:58.677Z,22.30
2022-08-16T01:59:28.463Z,22.30
2022-08-16T02:01:59.633Z,22.30
2022-08-16T02:04:48.352Z,22.30
2022-08-16T02:07:18.498Z,22.30
2022-08-16T02:09:56.861Z,22.30
2022-08-16T02:12:50.188Z,22.30
2022-08-16T02:15:17.260Z,22.30
2022-08-16T02:17:53.266Z,22.20
2022-08-16T02:20:26.322Z,22.30
2022-08-16T02:23:01.606Z,22.30
2022-08-16T02:25:52.444Z,22.30
2022-08-16T02:28:23.402Z,22.20
2022-08-16T02:30:52.638Z,22.30
2022-08-16T02:33:24.389Z,22.30
2022-08-16T02:36:14.196Z,22.30
2022-08-16T02:38:58.963Z,22.30
2022-08-16T02:41:26.335Z,22.30
2022-08-16T02:43:53.890Z,22.20
2022-08-16T02:46:29.938Z,22.20
2022-08-16T02:49:01.854Z,22.30
2022-08-16T02:51:29.460Z,22.20
2022-08-16T02:53:59.319Z,22.20
2022-08-16T02:56:32.237Z,22.20
2022-08-16T02:59:00.500Z,22.20
2022-08-16T03:01:36.438Z,22.20
2022-08-16T03:04:28.811Z,22.20
2022-08-16T03:06:56.823Z,22.20
2022-08-16T03:09:25.390Z,22.20
2022-08-16T03:11:57.141Z,22.20
2022-08-16T03:14:25.829Z,22.20
2022-08-16T03:16:59.964Z,22.20
2022-08-16T03:19:46.861Z,22.20
2022-08-16T03:22:19.377Z,22.20
2022-08-16T03:24:57.755Z,22.30
2022-08-16T03:27:31.009Z,22.30
2022-08-16T03:30:16.361Z,22.30
2022-08-16T03:32:47.190Z,22.30
2022-08-16T03:35:18.029Z,22.30
2022-08-16T03:38:01.408Z,22.30
2022-08-16T03:40:33.821Z,22.30
2022-08-16T03:43:20.395Z,22.30
2022-08-16T03:45:52.688Z,22.30
2022-08-16T03:48:36.912Z,22.30
2022-08-16T03:51:12.380Z,22.30
2022-08-16T03:53:41.701Z,22.20
2022-08-16T03:56:18.757Z,22.20
2022-08-16T03:58:50.670Z,22.20
2022-08-16T04:01:19.784Z,22.20
2022-08-16T04:03:47.203Z,22.20
2022-08-16T04:06:17.741Z,22.10
2022-08-16T04:08:45.285Z,22.10
2022-08-16T04:11:16.429Z,22.10
2022-08-16T04:14:00.094Z,22.10
2022-08-16T04:16:32.453Z,22.10
2022-08-16T04:19:04.213Z,22.10
2022-08-16T04:21:33.475Z,22.10
2022-08-16T04:24:03.650Z,22.10
2022-08-16T04:26:35.960Z,22.10
2022-08-16T04:29:14.687Z,22.10
2022-08-16T04:31:43.909Z,22.20
2022-08-16T04:34:11.336Z,22.10
2022-08-16T04:36:40.715Z,22.10
2022-08-16T04:39:08.103Z,22.10
2022-08-16T04:41:37.388Z,22.20
2022-08-16T04:44:32.356Z,22.10
2022-08-16T04:47:02.366Z,22.20
2022-08-16T04:49:43.876Z,22.10
2022-08-16T04:52:34.647Z,22.10
2022-08-16T04:55:01.114Z,22.10
2022-08-16T04:57:30.815Z,22.10
2022-08-16T04:59:58.167Z,22.20
2022-08-16T05:02:42.284Z,22.20
2022-08-16T05:05:17.077Z,22.20
2022-08-16T05:07:58.501Z,22.20
2022-08-16T05:10:29.586Z,22.20
2022-08-16T05:12:58.536Z,22.20
2022-08-16T05:15:27.010Z,22.20
2022-08-16T05:17:58.324Z,22.20
2022-08-16T05:20:35.583Z,22.20
2022-08-16T05:23:13.601Z,22.20
2022-08-16T05:25:48.391Z,22.20
2022-08-16T05:28:23.446Z,22.20
2022-08-16T05:31:04.871Z,22.20
2022-08-16T05:33:34.147Z,22.20
2022-08-16T05:36:03.644Z,22.20
2022-08-16T05:38:39.034Z,22.20
2022-08-16T05:41:07.547Z,22.20
2022-08-16T05:43:43.786Z,22.20
2022-08-16T05:46:29.884Z,22.20
2022-08-16T05:49:08.576Z,22.10
2022-08-16T05:51:41.728Z,22.10
2022-08-16T05:54:14.489Z,22.20
2022-08-16T05:56:42.977Z,22.20
2022-08-16T05:59:11.091Z,22.20
2022-08-16T06:01:39.922Z,22.20
2022-08-16T06:04:12.970Z,22.20
2022-08-16T06:06:57.577Z,22.20
2022-08-16T06:09:42.923Z,22.20
2022-08-16T06:12:27.970Z,22.20
2022-08-16T06:15:04.553Z,22.20
2022-08-16T06:17:42.875Z,22.20
2022-08-16T06:20:23.784Z,22.20
2022-08-16T06:22:58.967Z,22.20
2022-08-16T06:25:35.830Z,22.30
2022-08-16T06:28:08.559Z,22.30
2022-08-16T06:30:43.805Z,22.30
2022-08-16T06:33:24.780Z,22.30
2022-08-16T06:35:54.696Z,22.00
2022-08-16T06:38:32.842Z,21.70
2022-08-16T06:41:04.232Z,21.50
2022-08-16T06:43:32.387Z,21.30
2022-08-16T06:46:03.577Z,21.30
2022-08-16T06:48:33.921Z,21.20
2022-08-16T06:51:06.544Z,21.20
2022-08-16T06:53:35.567Z,21.20
2022-08-16T06:56:13.854Z,21.20
2022-08-16T06:58:45.864Z,21.20
2022-08-16T07:01:14.966Z,21.20
2022-08-16T07:03:55.807Z,21.10
2022-08-16T07:06:26.559Z,21.00
2022-08-16T07:08:54.880Z,21.00
2022-08-16T07:11:47.755Z,21.00
2022-08-16T07:14:25.017Z,21.10
2022-08-16T07:16:57.995Z,21.20
2022-08-16T07:20:01.391Z,21.20
2022-08-16T07:22:38.047Z,21.20
2022-08-16T07:25:05.832Z,21.10
2022-08-16T07:27:33.702Z,21.20
2022-08-16T07:30:39.218Z,21.20
2022-08-16T07:33:03.449Z,21.20
2022-08-16T07:35:31.864Z,21.30
2022-08-16T07:37:59.513Z,21.20
2022-08-16T07:40:57.997Z,21.10
2022-08-16T07:43:14.386Z,21.10
2022-08-16T07:45:43.202Z,21.20
2022-08-16T07:48:13.064Z,21.10
2022-08-16T07:50:56.789Z,21.20
2022-08-16T07:53:30.433Z,21.40
2022-08-16T07:56:00.361Z,21.40
2022-08-16T07:58:33.921Z,21.50
2022-08-16T08:01:10.898Z,21.50
2022-08-16T08:03:48.468Z,21.50
2022-08-16T08:06:19.164Z,21.50
2022-08-16T08:08:50.471Z,21.60
2022-08-16T08:11:21.706Z,21.60
2022-08-16T08:13:53.410Z,21.60
2022-08-16T08:16:21.680Z,21.50
2022-08-16T08:19:00.624Z,21.50
2022-08-16T08:22:00.636Z,21.40
2022-08-16T08:24:16.884Z,21.40
2022-08-16T08:26:44.769Z,21.40
2022-08-16T08:29:22.531Z,21.60
2022-08-16T08:31:51.981Z,21.60
2022-08-16T08:34:22.240Z,21.60
2022-08-16T08:36:54.352Z,21.60
2022-08-16T08:39:24.133Z,21.60
2022-08-16T08:41:52.471Z,21.70
2022-08-16T08:44:28.913Z,21.70
2022-08-16T08:47:07.949Z,21.70
2022-08-16T08:49:46.191Z,21.70
2022-08-16T08:52:34.623Z,21.80
2022-08-16T08:55:10.968Z,21.70
2022-08-16T08:57:41.177Z,21.70
2022-08-16T09:00:13.275Z,21.80
2022-08-16T09:02:44.410Z,21.80
2022-08-16T09:05:16.185Z,21.90
2022-08-16T09:08:01.769Z,21.90
2022-08-16T09:10:33.917Z,21.90
2022-08-16T09:13:07.980Z,21.90
2022-08-16T09:15:35.559Z,21.90
2022-08-16T09:18:26.219Z,21.90
2022-08-16T09:20:59.269Z,22.00
2022-08-16T09:23:36.601Z,22.00
2022-08-16T09:26:44.225Z,22.10
2022-08-16T09:29:15.187Z,22.10
2022-08-16T09:31:41.259Z,22.20
2022-08-16T09:34:09.626Z,22.20
2022-08-16T09:36:46.148Z,22.20
2022-08-16T09:39:16.244Z,22.30
2022-08-16T09:41:53.293Z,22.30
2022-08-16T09:45:09.334Z,22.30
2022-08-16T09:47:13.558Z,22.30
2022-08-16T09:49:51.018Z,22.40
2022-08-16T09:52:18.575Z,22.40
2022-08-16T09:54:50.095Z,22.40
2022-08-16T09:57:18.193Z,22.40
2022-08-16T09:59:45.859Z,22.40
2022-08-16T10:02:27.413Z,22.40
2022-08-16T10:04:57.557Z,22.40
2022-08-16T10:07:44.682Z,22.40
2022-08-16T10:10:19.159Z,22.40
2022-08-16T10:13:16.240Z,22.30
2022-08-16T10:15:47.962Z,22.30
2022-08-16T10:19:00.377Z,22.20
2022-08-16T10:21:10.628Z,22.20
2022-08-16T10:23:38.044Z,22.30
2022-08-16T10:27:17.135Z,22.40
2022-08-16T10:28:53.297Z,22.40
2022-08-16T10:31:46.038Z,22.40
2022-08-16T10:34:31.241Z,22.40
2022-08-16T10:36:56.899Z,22.40
2022-08-16T10:39:24.912Z,22.50
2022-08-16T10:41:52.316Z,22.40
2022-08-16T10:44:19.593Z,22.40
2022-08-16T10:46:47.149Z,22.50
2022-08-16T10:49:18.303Z,22.50
2022-08-16T10:52:03.137Z,22.50
2022-08-16T10:54:33.895Z,22.60
2022-08-16T10:57:20.976Z,22.60
2022-08-16T10:59:58.236Z,22.70
2022-08-16T11:02:57.605Z,22.70
2022-08-16T11:05:16.850Z,22.80
2022-08-16T11:08:05.411Z,22.70
2022-08-16T11:19:12.289Z,22.60
2022-08-16T11:24:41.892Z,22.60
2022-08-16T11:27:24.088Z,22.60
2022-08-16T11:29:59.960Z,22.50
2022-08-16T11:32:32.555Z,22.60
2022-08-16T11:35:10.693Z,22.60
2022-08-16T11:38:23.247Z,22.60
2022-08-16T11:40:52.295Z,22.60
2022-08-16T11:43:26.767Z,22.60
2022-08-16T11:45:55.059Z,22.60
2022-08-16T11:48:25.954Z,22.60
2022-08-16T11:50:54.092Z,22.60
2022-08-16T11:53:22.333Z,22.60
2022-08-16T11:55:54.907Z,22.60
2022-08-16T11:58:28.337Z,22.50
2022-08-16T12:01:01.165Z,22.60
2022-08-16T12:03:34.418Z,22.60
2022-08-16T12:06:24.929Z,22.60
2022-08-16T12:09:00.920Z,22.50
2022-08-16T12:11:31.283Z,22.60
2022-08-16T12:14:04.452Z,22.60
2022-08-16T12:16:34.192Z,22.60
2022-08-16T12:19:10.792Z,22.50
2022-08-16T12:21:58.281Z,22.50
2022-08-16T12:24:27.993Z,22.40
2022-08-16T12:26:55.733Z,22.40
2022-08-16T12:29:23.179Z,22.40
2022-08-16T12:32:01.437Z,22.50
2022-08-16T12:34:50.710Z,22.50
2022-08-16T12:37:24.130Z,22.60
2022-08-16T12:39:56.823Z,22.50
2022-08-16T12:42:35.277Z,22.50
2022-08-16T12:45:05.233Z,22.50
2022-08-16T12:47:51.408Z,22.50
2022-08-16T12:50:19.991Z,22.50
2022-08-16T12:52:52.249Z,22.50
2022-08-16T12:55:22.178Z,22.40
2022-08-16T12:57:58.290Z,22.50
2022-08-16T13:00:33.057Z,22.50
2022-08-16T13:03:03.286Z,22.50
2022-08-16T13:08:00.698Z,22.50
2022-08-16T13:10:32.107Z,22.60
2022-08-16T13:13:06.864Z,22.60
2022-08-16T13:15:55.676Z,22.60
2022-08-16T13:18:34.195Z,22.60
2022-08-16T13:21:07.053Z,22.60
2022-08-16T13:23:36.384Z,22.50
2022-08-16T13:26:12.807Z,22.60
2022-08-16T13:28:47.777Z,22.60
2022-08-16T13:31:16.728Z,22.60
2022-08-16T13:33:46.188Z,22.60
2022-08-16T13:36:32.174Z,22.60
2022-08-16T13:39:01.868Z,22.60
2022-08-16T13:41:30.183Z,22.60
2022-08-16T13:44:00.531Z,22.70
2022-08-16T13:46:30.043Z,22.70
2022-08-16T13:48:58.062Z,22.70
2022-08-16T13:51:29.247Z,22.80
2022-08-16T13:54:03.873Z,22.80
2022-08-16T13:56:38.780Z,22.70
2022-08-16T13:59:20.322Z,22.70
2022-08-16T14:01:55.587Z,22.70
2022-08-16T14:04:32.431Z,22.70
2022-08-16T14:07:01.934Z,22.80
2022-08-16T14:09:31.954Z,22.80
2022-08-16T14:12:01.065Z,22.80
2022-08-16T14:14:36.965Z,22.90
2022-08-16T14:17:09.900Z,22.90
2022-08-16T14:19:45.128Z,22.90
2022-08-16T14:22:30.817Z,22.80
2022-08-16T14:25:02.985Z,22.80
2022-08-16T14:27:31.321Z,22.90
2022-08-16T14:30:02.534Z,22.80
2022-08-16T14:32:34.580Z,22.80
2022-08-16T14:35:13.068Z,22.80
2022-08-16T14:37:44.160Z,22.70
2022-08-16T14:40:15.711Z,22.70
2022-08-16T14:42:51.233Z,22.70
2022-08-16T14:45:31.538Z,22.70
2022-08-16T14:48:10.243Z,22.70
2022-08-16T14:50:43.210Z,22.60
2022-08-16T14:53:15.563Z,22.60
2022-08-16T14:55:48.567Z,22.60
2022-08-16T14:58:19.456Z,22.60
2022-08-16T15:00:50.779Z,22.60
2022-08-16T15:03:22.481Z,22.60
2022-08-16T15:05:53.996Z,22.60
2022-08-16T15:08:34.101Z,22.60
2022-08-16T15:11:05.819Z,22.50
2022-08-16T15:13:35.795Z,22.50
2022-08-16T15:16:04.100Z,22.50
2022-08-16T15:18:33.631Z,22.50
2022-08-16T15:21:02.925Z,22.40
2022-08-16T15:23:33.981Z,22.40
2022-08-16T15:26:04.198Z,22.40
2022-08-16T15:28:37.069Z,22.40
2022-08-16T15:31:09.509Z,22.40
2022-08-16T15:33:50.066Z,22.40
2022-08-16T15:36:19.775Z,22.40
2022-08-16T15:38:56.265Z,22.40
2022-08-16T15:41:42.609Z,22.40
2022-08-16T15:44:23.705Z,22.40
2022-08-16T15:46:59.899Z,22.40
2022-08-16T15:49:37.884Z,22.40
2022-08-16T15:52:29.225Z,22.30
2022-08-16T15:54:59.508Z,22.30
2022-08-16T15:57:36.807Z,22.40
2022-08-16T16:00:14.419Z,22.40
2022-08-16T16:02:43.753Z,22.40
2022-08-16T16:05:11.239Z,22.40
2022-08-16T16:07:41.023Z,22.30
2022-08-16T16:10:30.014Z,22.30
2022-08-16T16:13:00.588Z,22.30
2022-08-16T16:15:31.363Z,22.30
2022-08-16T16:17:59.387Z,22.30
2022-08-16T16:20:37.287Z,22.30
2022-08-16T16:23:10.381Z,22.40
2022-08-16T16:25:43.571Z,22.30
2022-08-16T16:29:06.058Z,22.30
2022-08-16T16:31:04.694Z,22.30
2022-08-16T16:33:39.889Z,22.30
2022-08-16T16:36:08.852Z,22.30
2022-08-16T16:38:36.158Z,22.40
2022-08-16T16:41:09.461Z,22.40
2022-08-16T16:43:42.420Z,22.40
2022-08-16T16:46:40.899Z,22.30
2022-08-16T16:49:04.081Z,22.30
2022-08-16T16:51:40.544Z,22.40
2022-08-16T16:54:12.853Z,22.40
2022-08-16T16:56:49.795Z,22.40
2022-08-16T16:59:20.039Z,22.30
2022-08-16T17:01:57.564Z,22.30
2022-08-16T17:04:37.862Z,22.30
2022-08-16T17:07:07.799Z,22.30
2022-08-16T17:12:47.219Z,22.30
2022-08-16T17:15:15.123Z,22.30
2022-08-16T17:18:00.128Z,22.40
2022-08-16T17:20:29.757Z,22.40
2022-08-16T17:22:57.267Z,22.40
2022-08-16T17:25:27.171Z,22.40
2022-08-16T17:28:58.326Z,22.40
2022-08-16T17:30:53.465Z,22.40
2022-08-16T17:33:20.985Z,22.30
2022-08-16T17:38:45.955Z,22.40
2022-08-16T17:39:26.068Z,22.30
2022-08-16T17:39:28.096Z,22.40
2022-08-16T17:41:15.545Z,22.40
2022-08-16T17:43:44.874Z,22.40
2022-08-16T17:46:50.139Z,22.40
2022-08-16T17:49:02.104Z,22.30
2022-08-16T17:51:29.559Z,22.30
2022-08-16T17:53:57.154Z,22.30
2022-08-16T17:56:24.560Z,22.30
2022-08-16T17:58:52.033Z,22.30
2022-08-16T18:01:25.443Z,22.20
2022-08-16T18:04:06.370Z,22.20
2022-08-16T18:06:38.153Z,22.20
2022-08-16T18:09:07.030Z,22.20
2022-08-16T18:11:40.765Z,22.20
2022-08-16T18:14:10.236Z,22.20
2022-08-16T18:16:40.526Z,22.20
2022-08-16T18:19:08.317Z,22.20
2022-08-16T18:21:54.571Z,22.20
2022-08-16T18:24:21.963Z,22.20
2022-08-16T18:26:49.258Z,22.20
2022-08-16T18:29:18.081Z,22.20
2022-08-16T18:31:48.919Z,22.20
2022-08-16T18:34:19.007Z,22.20
2022-08-16T18:36:47.149Z,22.10
2022-08-16T18:39:14.581Z,22.10
2022-08-16T18:41:42.079Z,22.00
2022-08-16T18:44:24.743Z,22.00
2022-08-16T18:46:55.477Z,22.10
2022-08-16T18:49:22.787Z,22.20
2022-08-16T18:51:51.111Z,22.30
2022-08-16T18:54:18.644Z,22.30
2022-08-16T18:56:57.111Z,22.30
2022-08-16T18:59:29.934Z,22.30
2022-08-16T19:02:00.534Z,22.30
2022-08-16T19:04:56.175Z,22.30
2022-08-16T19:07:22.358Z,22.20
2022-08-16T19:09:49.701Z,22.20
2022-08-16T19:12:17.056Z,22.10
2022-08-16T19:15:07.830Z,22.10
2022-08-16T19:17:39.155Z,22.00
2022-08-16T19:20:10.796Z,22.00
2022-08-16T19:23:02.190Z,22.00
2022-08-16T19:25:48.081Z,22.00
2022-08-16T19:28:51.041Z,22.00
2022-08-16T19:31:26.831Z,21.90
2022-08-16T19:33:56.556Z,21.90
2022-08-16T19:36:31.753Z,21.80
2022-08-16T19:39:06.819Z,21.80
2022-08-16T19:41:39.133Z,21.70
2022-08-16T19:44:07.316Z,21.80
2022-08-16T19:46:35.689Z,21.80
2022-08-16T19:49:03.666Z,21.90
2022-08-16T19:51:30.954Z,21.80
2022-08-16T19:53:58.312Z,21.90
2022-08-16T19:56:26.719Z,21.90
2022-08-16T19:59:18.595Z,21.90
2022-08-16T20:01:43.957Z,21.80
2022-08-16T20:04:12.911Z,21.80
2022-08-16T20:06:41.902Z,21.80
2022-08-16T20:09:14.488Z,21.80
2022-08-16T20:11:47.346Z,21.80
2022-08-16T20:14:24.854Z,21.80
2022-08-16T20:16:56.086Z,21.80
2022-08-16T20:19:24.151Z,21.80
2022-08-16T20:21:51.473Z,21.80
2022-08-16T20:24:35.981Z,21.80
2022-08-16T20:27:07.674Z,21.80
2022-08-16T20:29:36.618Z,21.80
2022-08-16T20:32:04.958Z,21.80
2022-08-16T20:34:32.284Z,21.80
2022-08-16T20:36:59.915Z,21.70
2022-08-16T20:39:27.532Z,21.80
2022-08-16T20:41:55.131Z,21.80
2022-08-16T20:44:22.605Z,21.80
2022-08-16T20:46:50.487Z,21.80
2022-08-16T20:49:17.781Z,21.80
2022-08-16T20:51:49.366Z,21.80
2022-08-16T20:54:18.888Z,21.80
2022-08-16T20:56:46.210Z,21.80
2022-08-16T20:59:13.830Z,21.70
2022-08-16T21:01:45.877Z,21.60
2022-08-16T21:04:19.333Z,21.50
2022-08-16T21:06:53.941Z,21.50
2022-08-16T21:09:27.688Z,21.60
2022-08-16T21:11:56.890Z,21.60
2022-08-16T21:14:24.957Z,21.60
2022-08-16T21:16:52.556Z,21.60
2022-08-16T21:19:20.806Z,21.60
2022-08-16T21:21:48.614Z,21.60
2022-08-16T21:24:16.085Z,21.60
2022-08-16T21:26:47.441Z,21.60
2022-08-16T21:29:24.844Z,21.60
2022-08-16T21:31:52.479Z,21.60
2022-08-16T21:34:19.787Z,21.60
2022-08-16T21:36:47.080Z,21.70
2022-08-16T21:39:14.363Z,21.70
2022-08-16T21:41:41.663Z,21.60
2022-08-16T21:44:08.995Z,21.60
2022-08-16T21:46:36.301Z,21.60
2022-08-16T21:49:05.327Z,21.60
2022-08-16T21:51:32.678Z,21.60
2022-08-16T21:54:00.085Z,21.60
2022-08-16T21:56:28.129Z,21.60
2022-08-16T21:58:55.851Z,21.60
2022-08-16T22:01:23.803Z,21.60
2022-08-16T22:04:03.628Z,21.60
2022-08-16T22:06:40.822Z,21.60
2022-08-16T22:09:10.238Z,21.50
2022-08-16T22:11:37.752Z,21.40
2022-08-16T22:14:05.541Z,21.40
2022-08-16T22:16:36.927Z,21.50
2022-08-16T22:19:05.378Z,21.50
2022-08-16T22:21:34.123Z,21.50
2022-08-16T22:24:01.451Z,21.50
2022-08-16T22:26:32.645Z,21.50
2022-08-16T22:29:02.277Z,21.50
2022-08-16T22:31:30.169Z,21.50
2022-08-16T22:33:57.996Z,21.50
2022-08-16T22:36:28.151Z,21.50
2022-08-16T22:38:58.706Z,21.50
2022-08-16T22:41:34.154Z,21.40
2022-08-16T22:44:04.294Z,21.50
2022-08-16T22:46:34.787Z,21.40
2022-08-16T22:49:03.020Z,21.40
2022-08-16T22:51:30.365Z,21.50
2022-08-16T22:53:57.836Z,21.60
2022-08-16T22:56:25.905Z,21.70
2022-08-16T22:58:53.753Z,21.80
2022-08-16T23:01:23.264Z,22.00
2022-08-16T23:03:50.722Z,22.00
2022-08-16T23:06:18.735Z,22.10
2022-08-16T23:08:46.128Z,22.10
2022-08-16T23:11:22.511Z,22.20
2022-08-16T23:13:55.805Z,22.20
2022-08-16T23:16:32.507Z,22.20
2022-08-16T23:19:03.935Z,22.20
2022-08-16T23:21:31.431Z,22.20
2022-08-16T23:23:58.824Z,22.20
2022-08-16T23:26:45.298Z,22.30
2022-08-16T23:29:23.145Z,22.30
2022-08-16T23:31:59.393Z,22.20
2022-08-16T23:34:29.585Z,22.30
2022-08-16T23:36:57.805Z,22.30
2022-08-16T23:39:25.492Z,22.30
2022-08-16T23:41:52.943Z,22.30
2022-08-16T23:44:55.845Z,22.30
2022-08-16T23:47:07.584Z,22.30
2022-08-16T23:49:58.240Z,22.30
2022-08-16T23:52:53.850Z,22.30
2022-08-16T23:55:09.868Z,22.30
2022-08-16T23:57:37.502Z,22.30
